sensor_id;sensor_type;location;lat;lon;timestamp;temperature;humidity
75088;HTU21D;63664;44.868;40.600;2023-06-14T00:40:35;16.91;111.46
75088;HTU21D;63664;44.868;40.600;2023-06-14T00:43:02;16.91;111.49
75088;HTU21D;63664;44.868;40.600;2023-06-14T00:45:28;16.93;111.48
75088;HTU21D;63664;44.868;40.600;2023-06-14T00:47:56;16.95;111.52
75088;HTU21D;63664;44.868;40.600;2023-06-14T00:50:22;16.95;111.52
75088;HTU21D;63664;44.868;40.600;2023-06-14T00:52:49;16.95;111.57
75088;HTU21D;63664;44.868;40.600;2023-06-14T00:55:21;16.95;111.57
75088;HTU21D;63664;44.868;40.600;2023-06-14T00:57:48;16.94;111.65
75088;HTU21D;63664;44.868;40.600;2023-06-14T01:00:16;16.93;111.66
75088;HTU21D;63664;44.868;40.600;2023-06-14T01:02:42;16.93;111.76
75088;HTU21D;63664;44.868;40.600;2023-06-14T01:05:11;16.94;111.76
75088;HTU21D;63664;44.868;40.600;2023-06-14T01:11:02;16.94;111.77
75088;HTU21D;63664;44.868;40.600;2023-06-14T01:13:36;16.95;111.78
75088;HTU21D;63664;44.868;40.600;2023-06-14T01:16:05;16.96;111.84
75088;HTU21D;63664;44.868;40.600;2023-06-14T01:18:34;16.98;111.83
75088;HTU21D;63664;44.868;40.600;2023-06-14T01:21:01;16.96;111.89
75088;HTU21D;63664;44.868;40.600;2023-06-14T01:23:32;16.98;111.93
75088;HTU21D;63664;44.868;40.600;2023-06-14T01:25:59;16.98;111.97
75088;HTU21D;63664;44.868;40.600;2023-06-14T01:28:31;16.99;112.03
75088;HTU21D;63664;44.868;40.600;2023-06-14T01:31:06;17.00;112.04
75088;HTU21D;63664;44.868;40.600;2023-06-14T01:41:40;16.99;112.12
75088;HTU21D;63664;44.868;40.600;2023-06-14T01:44:12;17.00;112.17
75088;HTU21D;63664;44.868;40.600;2023-06-14T01:46:44;17.00;112.21
75088;HTU21D;63664;44.868;40.600;2023-06-14T01:49:11;17.02;112.26
75088;HTU21D;63664;44.868;40.600;2023-06-14T01:51:38;17.03;112.25
75088;HTU21D;63664;44.868;40.600;2023-06-14T01:54:06;17.03;112.28
75088;HTU21D;63664;44.868;40.600;2023-06-14T01:56:32;17.03;112.30
75088;HTU21D;63664;44.868;40.600;2023-06-14T01:58:59;17.05;112.31
75088;HTU21D;63664;44.868;40.600;2023-06-14T02:01:25;17.04;112.29
75088;HTU21D;63664;44.868;40.600;2023-06-14T02:03:52;17.03;112.31
75088;HTU21D;63664;44.868;40.600;2023-06-14T02:06:19;17.06;112.31
75088;HTU21D;63664;44.868;40.600;2023-06-14T02:08:46;17.06;112.26
75088;HTU21D;63664;44.868;40.600;2023-06-14T02:11:12;17.03;112.29
75088;HTU21D;63664;44.868;40.600;2023-06-14T02:13:38;17.05;112.38
75088;HTU21D;63664;44.868;40.600;2023-06-14T02:16:05;17.03;112.32
75088;HTU21D;63664;44.868;40.600;2023-06-14T02:18:31;17.04;112.35
75088;HTU21D;63664;44.868;40.600;2023-06-14T02:21:00;17.05;112.37
75088;HTU21D;63664;44.868;40.600;2023-06-14T02:23:28;17.05;112.31
75088;HTU21D;63664;44.868;40.600;2023-06-14T02:25:55;17.06;112.34
75088;HTU21D;63664;44.868;40.600;2023-06-14T02:28:21;17.07;112.32
75088;HTU21D;63664;44.868;40.600;2023-06-14T02:30:47;17.10;112.37
75088;HTU21D;63664;44.868;40.600;2023-06-14T02:33:13;17.13;112.32
75088;HTU21D;63664;44.868;40.600;2023-06-14T02:35:40;17.18;112.36
75088;HTU21D;63664;44.868;40.600;2023-06-14T02:38:06;17.22;112.42
75088;HTU21D;63664;44.868;40.600;2023-06-14T02:40:32;17.28;112.42
75088;HTU21D;63664;44.868;40.600;2023-06-14T02:42:58;17.32;112.40
75088;HTU21D;63664;44.868;40.600;2023-06-14T02:45:25;17.38;112.36
75088;HTU21D;63664;44.868;40.600;2023-06-14T02:47:53;17.47;112.33
75088;HTU21D;63664;44.868;40.600;2023-06-14T02:50:24;17.53;112.32
75088;HTU21D;63664;44.868;40.600;2023-06-14T02:52:50;17.61;112.28
75088;HTU21D;63664;44.868;40.600;2023-06-14T02:55:18;17.67;112.26
75088;HTU21D;63664;44.868;40.600;2023-06-14T02:57:44;17.77;112.22
75088;HTU21D;63664;44.868;40.600;2023-06-14T03:00:13;17.85;112.18
75088;HTU21D;63664;44.868;40.600;2023-06-14T03:02:42;17.93;112.11
75088;HTU21D;63664;44.868;40.600;2023-06-14T03:05:12;18.02;112.07
75088;HTU21D;63664;44.868;40.600;2023-06-14T03:07:41;18.09;112.03
75088;HTU21D;63664;44.868;40.600;2023-06-14T03:10:11;18.18;112.01
75088;HTU21D;63664;44.868;40.600;2023-06-14T03:12:41;18.25;111.87
75088;HTU21D;63664;44.868;40.600;2023-06-14T03:15:10;18.33;111.86
75088;HTU21D;63664;44.868;40.600;2023-06-14T03:17:41;18.40;111.81
75088;HTU21D;63664;44.868;40.600;2023-06-14T03:20:12;18.47;111.68
75088;HTU21D;63664;44.868;40.600;2023-06-14T03:22:39;18.55;111.67
75088;HTU21D;63664;44.868;40.600;2023-06-14T03:25:06;18.64;111.51
75088;HTU21D;63664;44.868;40.600;2023-06-14T03:27:36;18.68;111.43
75088;HTU21D;63664;44.868;40.600;2023-06-14T03:30:05;18.73;111.42
75088;HTU21D;63664;44.868;40.600;2023-06-14T03:32:32;18.81;111.26
75088;HTU21D;63664;44.868;40.600;2023-06-14T03:34:59;18.84;111.17
75088;HTU21D;63664;44.868;40.600;2023-06-14T03:37:30;18.89;111.10
75088;HTU21D;63664;44.868;40.600;2023-06-14T03:39:56;18.96;110.93
75088;HTU21D;63664;44.868;40.600;2023-06-14T03:42:27;19.05;110.84
75088;HTU21D;63664;44.868;40.600;2023-06-14T03:44:54;19.11;110.68
75088;HTU21D;63664;44.868;40.600;2023-06-14T03:47:25;19.18;110.45
75088;HTU21D;63664;44.868;40.600;2023-06-14T03:49:56;19.23;110.24
75088;HTU21D;63664;44.868;40.600;2023-06-14T03:52:26;19.28;110.16
75088;HTU21D;63664;44.868;40.600;2023-06-14T03:54:55;19.33;110.09
75088;HTU21D;63664;44.868;40.600;2023-06-14T03:57:23;19.38;109.95
75088;HTU21D;63664;44.868;40.600;2023-06-14T03:59:51;19.44;109.82
75088;HTU21D;63664;44.868;40.600;2023-06-14T04:02:22;19.47;109.75
75088;HTU21D;63664;44.868;40.600;2023-06-14T04:04:49;19.48;109.63
75088;HTU21D;63664;44.868;40.600;2023-06-14T04:07:15;19.52;109.58
75088;HTU21D;63664;44.868;40.600;2023-06-14T04:09:46;19.56;109.52
75088;HTU21D;63664;44.868;40.600;2023-06-14T04:12:12;19.58;109.44
75088;HTU21D;63664;44.868;40.600;2023-06-14T04:14:39;19.61;109.39
75088;HTU21D;63664;44.868;40.600;2023-06-14T04:17:08;19.66;109.29
75088;HTU21D;63664;44.868;40.600;2023-06-14T04:19:41;19.70;109.22
75088;HTU21D;63664;44.868;40.600;2023-06-14T04:22:10;19.76;109.10
75088;HTU21D;63664;44.868;40.600;2023-06-14T04:24:39;19.86;108.95
75088;HTU21D;63664;44.868;40.600;2023-06-14T04:27:11;19.97;108.69
75088;HTU21D;63664;44.868;40.600;2023-06-14T04:29:38;20.09;108.39
75088;HTU21D;63664;44.868;40.600;2023-06-14T04:32:13;20.19;108.08
75088;HTU21D;63664;44.868;40.600;2023-06-14T04:34:43;20.31;107.97
75088;HTU21D;63664;44.868;40.600;2023-06-14T04:37:15;20.40;107.48
75088;HTU21D;63664;44.868;40.600;2023-06-14T04:39:44;20.46;107.41
75088;HTU21D;63664;44.868;40.600;2023-06-14T04:42:11;20.51;107.34
75088;HTU21D;63664;44.868;40.600;2023-06-14T04:44:38;20.56;107.28
75088;HTU21D;63664;44.868;40.600;2023-06-14T04:47:06;20.62;107.27
75088;HTU21D;63664;44.868;40.600;2023-06-14T04:49:32;20.68;107.20
75088;HTU21D;63664;44.868;40.600;2023-06-14T04:52:03;20.76;107.01
75088;HTU21D;63664;44.868;40.600;2023-06-14T04:54:40;20.87;106.87
75088;HTU21D;63664;44.868;40.600;2023-06-14T04:57:10;20.99;106.61
75088;HTU21D;63664;44.868;40.600;2023-06-14T04:59:41;21.11;106.29
75088;HTU21D;63664;44.868;40.600;2023-06-14T05:02:11;21.21;106.11
75088;HTU21D;63664;44.868;40.600;2023-06-14T05:04:38;21.32;105.94
75088;HTU21D;63664;44.868;40.600;2023-06-14T05:07:07;21.42;105.77
75088;HTU21D;63664;44.868;40.600;2023-06-14T05:09:35;21.52;105.54
75088;HTU21D;63664;44.868;40.600;2023-06-14T05:12:03;21.64;105.20
75088;HTU21D;63664;44.868;40.600;2023-06-14T05:14:29;21.68;104.98
75088;HTU21D;63664;44.868;40.600;2023-06-14T05:16:58;21.73;104.92
75088;HTU21D;63664;44.868;40.600;2023-06-14T05:19:28;21.79;104.76
75088;HTU21D;63664;44.868;40.600;2023-06-14T05:21:58;21.88;104.54
75088;HTU21D;63664;44.868;40.600;2023-06-14T05:24:24;21.95;104.23
75088;HTU21D;63664;44.868;40.600;2023-06-14T05:26:52;22.08;103.79
75088;HTU21D;63664;44.868;40.600;2023-06-14T05:29:18;22.20;103.45
75088;HTU21D;63664;44.868;40.600;2023-06-14T05:31:44;22.29;103.20
75088;HTU21D;63664;44.868;40.600;2023-06-14T05:34:10;22.38;102.95
75088;HTU21D;63664;44.868;40.600;2023-06-14T05:36:39;22.47;102.79
75088;HTU21D;63664;44.868;40.600;2023-06-14T05:39:06;22.61;102.24
75088;HTU21D;63664;44.868;40.600;2023-06-14T05:41:32;22.69;102.06
75088;HTU21D;63664;44.868;40.600;2023-06-14T05:43:58;22.81;101.96
75088;HTU21D;63664;44.868;40.600;2023-06-14T05:46:26;22.91;101.51
75088;HTU21D;63664;44.868;40.600;2023-06-14T05:48:53;23.05;101.12
75088;HTU21D;63664;44.868;40.600;2023-06-14T05:51:20;23.17;100.75
75088;HTU21D;63664;44.868;40.600;2023-06-14T05:53:47;23.24;100.51
75088;HTU21D;63664;44.868;40.600;2023-06-14T05:56:21;23.28;100.49
75088;HTU21D;63664;44.868;40.600;2023-06-14T05:58:50;23.32;100.31
75088;HTU21D;63664;44.868;40.600;2023-06-14T06:01:16;23.41;100.16
75088;HTU21D;63664;44.868;40.600;2023-06-14T06:03:43;23.49;99.74
75088;HTU21D;63664;44.868;40.600;2023-06-14T06:06:13;23.53;99.57
75088;HTU21D;63664;44.868;40.600;2023-06-14T06:08:39;23.58;99.42
75088;HTU21D;63664;44.868;40.600;2023-06-14T06:11:06;23.72;99.04
75088;HTU21D;63664;44.868;40.600;2023-06-14T06:13:32;23.94;98.44
75088;HTU21D;63664;44.868;40.600;2023-06-14T06:16:00;24.11;97.68
75088;HTU21D;63664;44.868;40.600;2023-06-14T06:18:26;24.16;97.39
75088;HTU21D;63664;44.868;40.600;2023-06-14T06:20:52;24.17;96.86
75088;HTU21D;63664;44.868;40.600;2023-06-14T06:23:18;24.16;97.01
75088;HTU21D;63664;44.868;40.600;2023-06-14T06:25:45;24.25;96.65
75088;HTU21D;63664;44.868;40.600;2023-06-14T06:28:11;24.40;96.46
75088;HTU21D;63664;44.868;40.600;2023-06-14T06:30:37;24.57;95.52
75088;HTU21D;63664;44.868;40.600;2023-06-14T08:55:08;28.29;80.06
75088;HTU21D;63664;44.868;40.600;2023-06-14T08:57:37;28.27;79.74
75088;HTU21D;63664;44.868;40.600;2023-06-14T09:00:04;28.40;80.24
75088;HTU21D;63664;44.868;40.600;2023-06-14T09:02:42;28.25;79.92
75088;HTU21D;63664;44.868;40.600;2023-06-14T09:05:10;28.06;79.82
75088;HTU21D;63664;44.868;40.600;2023-06-14T09:07:42;27.96;80.04
75088;HTU21D;63664;44.868;40.600;2023-06-14T09:10:14;27.90;79.95
75088;HTU21D;63664;44.868;40.600;2023-06-14T09:12:41;27.75;80.33
75088;HTU21D;63664;44.868;40.600;2023-06-14T09:15:09;27.65;80.81
75088;HTU21D;63664;44.868;40.600;2023-06-14T09:17:36;27.63;81.05
75088;HTU21D;63664;44.868;40.600;2023-06-14T09:20:19;27.69;81.25
75088;HTU21D;63664;44.868;40.600;2023-06-14T09:22:46;27.74;81.05
75088;HTU21D;63664;44.868;40.600;2023-06-14T09:25:12;27.79;80.75
75088;HTU21D;63664;44.868;40.600;2023-06-14T09:27:42;27.99;80.94
75088;HTU21D;63664;44.868;40.600;2023-06-14T09:30:11;28.31;80.98
75088;HTU21D;63664;44.868;40.600;2023-06-14T09:32:40;28.67;79.53
75088;HTU21D;63664;44.868;40.600;2023-06-14T09:35:08;28.95;78.54
75088;HTU21D;63664;44.868;40.600;2023-06-14T09:37:38;29.14;78.02
75088;HTU21D;63664;44.868;40.600;2023-06-14T09:40:05;29.14;78.07
75088;HTU21D;63664;44.868;40.600;2023-06-14T09:42:33;29.13;77.56
75088;HTU21D;63664;44.868;40.600;2023-06-14T09:45:06;28.95;78.05
75088;HTU21D;63664;44.868;40.600;2023-06-14T09:47:36;28.87;78.49
75088;HTU21D;63664;44.868;40.600;2023-06-14T09:50:06;28.86;78.72
75088;HTU21D;63664;44.868;40.600;2023-06-14T09:52:32;28.91;78.74
75088;HTU21D;63664;44.868;40.600;2023-06-14T09:54:59;28.99;78.70
75088;HTU21D;63664;44.868;40.600;2023-06-14T09:57:27;29.01;77.68
75088;HTU21D;63664;44.868;40.600;2023-06-14T09:59:57;28.98;77.69
75088;HTU21D;63664;44.868;40.600;2023-06-14T10:02:36;28.98;77.44
75088;HTU21D;63664;44.868;40.600;2023-06-14T10:05:06;28.94;77.19
75088;HTU21D;63664;44.868;40.600;2023-06-14T10:07:55;28.90;77.64
75088;HTU21D;63664;44.868;40.600;2023-06-14T10:10:23;28.88;77.64
75088;HTU21D;63664;44.868;40.600;2023-06-14T10:12:50;28.91;77.43
75088;HTU21D;63664;44.868;40.600;2023-06-14T10:15:47;28.97;77.62
75088;HTU21D;63664;44.868;40.600;2023-06-14T10:23:41;28.89;77.72
75088;HTU21D;63664;44.868;40.600;2023-06-14T10:26:09;28.99;77.23
75088;HTU21D;63664;44.868;40.600;2023-06-14T10:29:07;29.03;77.36
75088;HTU21D;63664;44.868;40.600;2023-06-14T10:31:50;29.09;76.82
75088;HTU21D;63664;44.868;40.600;2023-06-14T10:34:29;29.17;76.41
75088;HTU21D;63664;44.868;40.600;2023-06-14T10:37:12;29.29;75.95
75088;HTU21D;63664;44.868;40.600;2023-06-14T10:39:45;29.48;75.18
75088;HTU21D;63664;44.868;40.600;2023-06-14T10:42:13;29.64;74.59
75088;HTU21D;63664;44.868;40.600;2023-06-14T10:47:31;29.93;73.09
75088;HTU21D;63664;44.868;40.600;2023-06-14T10:50:06;30.05;73.76
75088;HTU21D;63664;44.868;40.600;2023-06-14T10:52:35;30.06;73.21
75088;HTU21D;63664;44.868;40.600;2023-06-14T10:55:12;30.17;72.60
75088;HTU21D;63664;44.868;40.600;2023-06-14T10:57:46;30.21;71.91
75088;HTU21D;63664;44.868;40.600;2023-06-14T11:00:22;30.37;71.48
75088;HTU21D;63664;44.868;40.600;2023-06-14T11:10:51;30.77;70.38
75088;HTU21D;63664;44.868;40.600;2023-06-14T11:13:25;30.81;69.71
75088;HTU21D;63664;44.868;40.600;2023-06-14T11:15:52;30.90;69.66
75088;HTU21D;63664;44.868;40.600;2023-06-14T11:18:24;31.02;69.41
75088;HTU21D;63664;44.868;40.600;2023-06-14T11:20:50;31.13;68.94
75088;HTU21D;63664;44.868;40.600;2023-06-14T11:23:17;31.28;68.87
75088;HTU21D;63664;44.868;40.600;2023-06-14T11:25:43;31.39;67.94
75088;HTU21D;63664;44.868;40.600;2023-06-14T11:28:10;31.20;68.37
75088;HTU21D;63664;44.868;40.600;2023-06-14T11:30:37;31.25;68.29
75088;HTU21D;63664;44.868;40.600;2023-06-14T11:33:03;31.23;68.11
75088;HTU21D;63664;44.868;40.600;2023-06-14T11:35:35;31.24;67.83
75088;HTU21D;63664;44.868;40.600;2023-06-14T11:38:02;31.10;67.83
75088;HTU21D;63664;44.868;40.600;2023-06-14T11:40:28;30.99;67.63
75088;HTU21D;63664;44.868;40.600;2023-06-14T11:43:02;30.90;68.33
75088;HTU21D;63664;44.868;40.600;2023-06-14T11:45:29;30.96;67.86
75088;HTU21D;63664;44.868;40.600;2023-06-14T11:47:59;31.02;67.57
75088;HTU21D;63664;44.868;40.600;2023-06-14T11:50:27;31.07;67.54
75088;HTU21D;63664;44.868;40.600;2023-06-14T11:52:58;31.02;67.41
75088;HTU21D;63664;44.868;40.600;2023-06-14T11:55:37;30.98;67.23
75088;HTU21D;63664;44.868;40.600;2023-06-14T11:58:05;31.07;66.94
75088;HTU21D;63664;44.868;40.600;2023-06-14T12:00:31;30.99;66.61
75088;HTU21D;63664;44.868;40.600;2023-06-14T12:02:58;31.01;66.04
75088;HTU21D;63664;44.868;40.600;2023-06-14T12:05:25;31.00;65.82
75088;HTU21D;63664;44.868;40.600;2023-06-14T12:08:00;30.95;65.63
75088;HTU21D;63664;44.868;40.600;2023-06-14T12:10:27;30.96;65.27
75088;HTU21D;63664;44.868;40.600;2023-06-14T12:13:00;31.09;65.50
75088;HTU21D;63664;44.868;40.600;2023-06-14T12:15:31;31.14;64.87
75088;HTU21D;63664;44.868;40.600;2023-06-14T12:17:58;31.20;64.76
75088;HTU21D;63664;44.868;40.600;2023-06-14T12:20:30;31.25;64.50
75088;HTU21D;63664;44.868;40.600;2023-06-14T12:22:58;31.11;64.56
75088;HTU21D;63664;44.868;40.600;2023-06-14T12:25:39;31.13;64.74
75088;HTU21D;63664;44.868;40.600;2023-06-14T12:28:08;31.24;63.96
75088;HTU21D;63664;44.868;40.600;2023-06-14T12:30:37;31.30;63.36
75088;HTU21D;63664;44.868;40.600;2023-06-14T12:33:04;31.35;64.44
75088;HTU21D;63664;44.868;40.600;2023-06-14T12:35:31;31.18;64.15
75088;HTU21D;63664;44.868;40.600;2023-06-14T12:37:58;31.04;63.51
75088;HTU21D;63664;44.868;40.600;2023-06-14T12:40:24;30.96;63.37
75088;HTU21D;63664;44.868;40.600;2023-06-14T12:42:50;31.01;63.41
75088;HTU21D;63664;44.868;40.600;2023-06-14T12:45:17;30.99;63.37
75088;HTU21D;63664;44.868;40.600;2023-06-14T12:47:45;30.81;63.92
75088;HTU21D;63664;44.868;40.600;2023-06-14T12:50:11;30.69;63.84
75088;HTU21D;63664;44.868;40.600;2023-06-14T12:52:53;30.54;64.27
75088;HTU21D;63664;44.868;40.600;2023-06-14T12:55:19;30.44;64.23
75088;HTU21D;63664;44.868;40.600;2023-06-14T12:57:47;30.28;64.24
75088;HTU21D;63664;44.868;40.600;2023-06-14T13:00:16;30.10;64.86
75088;HTU21D;63664;44.868;40.600;2023-06-14T13:02:43;29.96;65.40
75088;HTU21D;63664;44.868;40.600;2023-06-14T13:05:12;29.82;65.66
75088;HTU21D;63664;44.868;40.600;2023-06-14T13:07:42;29.76;65.70
75088;HTU21D;63664;44.868;40.600;2023-06-14T13:10:09;29.76;65.58
75088;HTU21D;63664;44.868;40.600;2023-06-14T13:12:38;29.89;65.37
75088;HTU21D;63664;44.868;40.600;2023-06-14T13:15:04;30.09;65.05
75088;HTU21D;63664;44.868;40.600;2023-06-14T13:17:36;30.13;65.14
75088;HTU21D;63664;44.868;40.600;2023-06-14T13:20:07;30.21;65.35
75088;HTU21D;63664;44.868;40.600;2023-06-14T13:22:34;30.41;65.08
75088;HTU21D;63664;44.868;40.600;2023-06-14T13:25:01;30.42;65.21
75088;HTU21D;63664;44.868;40.600;2023-06-14T13:27:29;30.42;65.10
75088;HTU21D;63664;44.868;40.600;2023-06-14T13:29:55;30.50;64.50
75088;HTU21D;63664;44.868;40.600;2023-06-14T13:32:22;30.55;64.55
75088;HTU21D;63664;44.868;40.600;2023-06-14T13:34:50;30.55;64.36
75088;HTU21D;63664;44.868;40.600;2023-06-14T13:37:16;30.64;64.42
75088;HTU21D;63664;44.868;40.600;2023-06-14T13:39:45;30.74;64.85
75088;HTU21D;63664;44.868;40.600;2023-06-14T13:42:13;30.82;64.37
75088;HTU21D;63664;44.868;40.600;2023-06-14T13:44:39;30.85;64.22
75088;HTU21D;63664;44.868;40.600;2023-06-14T13:47:06;30.81;64.22
75088;HTU21D;63664;44.868;40.600;2023-06-14T13:49:32;30.83;64.02
75088;HTU21D;63664;44.868;40.600;2023-06-14T13:52:01;30.82;64.34
75088;HTU21D;63664;44.868;40.600;2023-06-14T13:54:27;30.91;63.95
75088;HTU21D;63664;44.868;40.600;2023-06-14T13:56:54;30.91;63.48
75088;HTU21D;63664;44.868;40.600;2023-06-14T13:59:20;30.85;63.54
75088;HTU21D;63664;44.868;40.600;2023-06-14T14:01:49;30.60;63.85
75088;HTU21D;63664;44.868;40.600;2023-06-14T14:04:15;30.56;64.23
75088;HTU21D;63664;44.868;40.600;2023-06-14T14:06:42;30.63;63.86
75088;HTU21D;63664;44.868;40.600;2023-06-14T14:09:08;30.64;63.63
75088;HTU21D;63664;44.868;40.600;2023-06-14T14:11:35;30.60;63.60
75088;HTU21D;63664;44.868;40.600;2023-06-14T14:14:02;30.57;64.12
75088;HTU21D;63664;44.868;40.600;2023-06-14T14:16:29;30.68;63.63
75088;HTU21D;63664;44.868;40.600;2023-06-14T14:18:56;30.75;63.56
75088;HTU21D;63664;44.868;40.600;2023-06-14T14:21:22;30.71;63.39
75088;HTU21D;63664;44.868;40.600;2023-06-14T14:23:48;30.65;63.37
75088;HTU21D;63664;44.868;40.600;2023-06-14T14:26:15;30.48;64.28
75088;HTU21D;63664;44.868;40.600;2023-06-14T14:28:45;30.59;64.60
75088;HTU21D;63664;44.868;40.600;2023-06-14T14:31:12;30.35;64.62
75088;HTU21D;63664;44.868;40.600;2023-06-14T14:33:41;29.93;65.34
75088;HTU21D;63664;44.868;40.600;2023-06-14T14:36:08;29.68;66.45
75088;HTU21D;63664;44.868;40.600;2023-06-14T14:38:34;29.61;66.75
75088;HTU21D;63664;44.868;40.600;2023-06-14T14:41:01;29.49;67.26
75088;HTU21D;63664;44.868;40.600;2023-06-14T14:43:27;29.39;67.30
75088;HTU21D;63664;44.868;40.600;2023-06-14T14:45:57;29.38;67.10
75088;HTU21D;63664;44.868;40.600;2023-06-14T16:40:11;24.32;88.87
75088;HTU21D;63664;44.868;40.600;2023-06-14T16:42:41;24.23;89.12
75088;HTU21D;63664;44.868;40.600;2023-06-14T16:45:10;24.12;89.31
75088;HTU21D;63664;44.868;40.600;2023-06-14T16:47:36;24.01;89.59
75088;HTU21D;63664;44.868;40.600;2023-06-14T16:50:03;23.90;89.78
75088;HTU21D;63664;44.868;40.600;2023-06-14T16:52:30;23.83;89.95
75088;HTU21D;63664;44.868;40.600;2023-06-14T16:54:56;23.74;90.02
75088;HTU21D;63664;44.868;40.600;2023-06-14T16:57:22;23.67;90.22
75088;HTU21D;63664;44.868;40.600;2023-06-14T16:59:49;23.61;90.41
75088;HTU21D;63664;44.868;40.600;2023-06-14T17:02:15;23.55;90.68
75088;HTU21D;63664;44.868;40.600;2023-06-14T17:04:42;23.50;90.90
75088;HTU21D;63664;44.868;40.600;2023-06-14T17:07:08;23.44;91.09
75088;HTU21D;63664;44.868;40.600;2023-06-14T17:09:35;23.39;91.47
75088;HTU21D;63664;44.868;40.600;2023-06-14T17:12:02;23.34;91.76
75088;HTU21D;63664;44.868;40.600;2023-06-14T17:14:31;23.25;92.05
75088;HTU21D;63664;44.868;40.600;2023-06-14T17:16:57;23.15;92.49
75088;HTU21D;63664;44.868;40.600;2023-06-14T17:19:24;23.09;92.76
75088;HTU21D;63664;44.868;40.600;2023-06-14T17:21:50;23.03;93.01
75088;HTU21D;63664;44.868;40.600;2023-06-14T17:24:20;22.97;93.26
75088;HTU21D;63664;44.868;40.600;2023-06-14T17:26:49;22.93;93.47
75088;HTU21D;63664;44.868;40.600;2023-06-14T17:29:15;22.85;93.61
75088;HTU21D;63664;44.868;40.600;2023-06-14T17:31:44;22.78;93.84
75088;HTU21D;63664;44.868;40.600;2023-06-14T17:34:10;22.71;94.06
75088;HTU21D;63664;44.868;40.600;2023-06-14T17:36:36;22.70;94.22
75088;HTU21D;63664;44.868;40.600;2023-06-14T17:39:03;22.66;94.30
75088;HTU21D;63664;44.868;40.600;2023-06-14T17:41:31;22.60;94.52
75088;HTU21D;63664;44.868;40.600;2023-06-14T17:43:58;22.56;94.72
75088;HTU21D;63664;44.868;40.600;2023-06-14T17:46:24;22.53;94.83
75088;HTU21D;63664;44.868;40.600;2023-06-14T17:48:50;22.52;94.81
75088;HTU21D;63664;44.868;40.600;2023-06-14T17:51:17;22.50;94.87
75088;HTU21D;63664;44.868;40.600;2023-06-14T17:53:45;22.47;95.03
75088;HTU21D;63664;44.868;40.600;2023-06-14T17:56:12;22.38;95.25
75088;HTU21D;63664;44.868;40.600;2023-06-14T17:58:38;22.35;95.52
75088;HTU21D;63664;44.868;40.600;2023-06-14T18:01:04;22.34;95.58
75088;HTU21D;63664;44.868;40.600;2023-06-14T18:03:32;22.32;95.70
75088;HTU21D;63664;44.868;40.600;2023-06-14T18:05:59;22.33;95.71
75088;HTU21D;63664;44.868;40.600;2023-06-14T18:08:26;22.31;95.65
75088;HTU21D;63664;44.868;40.600;2023-06-14T18:10:53;22.31;95.78
75088;HTU21D;63664;44.868;40.600;2023-06-14T18:13:20;22.27;95.86
75088;HTU21D;63664;44.868;40.600;2023-06-14T18:15:47;22.24;95.97
75088;HTU21D;63664;44.868;40.600;2023-06-14T18:18:13;22.21;96.17
75088;HTU21D;63664;44.868;40.600;2023-06-14T18:20:40;22.21;96.24
75088;HTU21D;63664;44.868;40.600;2023-06-14T18:23:06;22.18;96.42
75088;HTU21D;63664;44.868;40.600;2023-06-14T18:25:36;22.14;96.48
75088;HTU21D;63664;44.868;40.600;2023-06-14T18:28:02;22.09;96.51
75088;HTU21D;63664;44.868;40.600;2023-06-14T18:30:29;22.07;96.65
75088;HTU21D;63664;44.868;40.600;2023-06-14T18:32:55;22.04;96.73
75088;HTU21D;63664;44.868;40.600;2023-06-14T18:35:21;22.02;96.79
75088;HTU21D;63664;44.868;40.600;2023-06-14T18:37:48;21.98;96.94
75088;HTU21D;63664;44.868;40.600;2023-06-14T18:40:15;21.94;97.05
75088;HTU21D;63664;44.868;40.600;2023-06-14T18:42:42;21.89;97.15
75088;HTU21D;63664;44.868;40.600;2023-06-14T18:45:09;21.85;97.25
75088;HTU21D;63664;44.868;40.600;2023-06-14T18:47:35;21.81;97.31
75088;HTU21D;63664;44.868;40.600;2023-06-14T18:50:02;21.75;97.46
75088;HTU21D;63664;44.868;40.600;2023-06-14T18:52:28;21.65;97.48
75088;HTU21D;63664;44.868;40.600;2023-06-14T18:54:55;21.63;97.65
75088;HTU21D;63664;44.868;40.600;2023-06-14T18:57:24;21.59;97.26
75088;HTU21D;63664;44.868;40.600;2023-06-14T18:59:51;21.50;97.29
75088;HTU21D;63664;44.868;40.600;2023-06-14T19:02:18;21.43;97.58
75088;HTU21D;63664;44.868;40.600;2023-06-14T19:04:46;21.37;97.72
75088;HTU21D;63664;44.868;40.600;2023-06-14T19:07:13;21.33;97.90
75088;HTU21D;63664;44.868;40.600;2023-06-14T19:09:40;21.31;97.98
75088;HTU21D;63664;44.868;40.600;2023-06-14T19:12:07;21.31;98.13
75088;HTU21D;63664;44.868;40.600;2023-06-14T19:14:36;21.28;98.16
75088;HTU21D;63664;44.868;40.600;2023-06-14T19:17:03;21.25;98.25
75088;HTU21D;63664;44.868;40.600;2023-06-14T19:19:30;21.22;98.34
75088;HTU21D;63664;44.868;40.600;2023-06-14T19:21:56;21.18;98.40
75088;HTU21D;63664;44.868;40.600;2023-06-14T19:24:22;21.16;98.59
75088;HTU21D;63664;44.868;40.600;2023-06-14T19:26:49;21.14;98.68
75088;HTU21D;63664;44.868;40.600;2023-06-14T19:29:18;21.11;98.80
75088;HTU21D;63664;44.868;40.600;2023-06-14T19:31:47;21.09;99.05
75088;HTU21D;63664;44.868;40.600;2023-06-14T19:34:13;21.10;98.55
75088;HTU21D;63664;44.868;40.600;2023-06-14T19:36:40;21.07;98.61
75088;HTU21D;63664;44.868;40.600;2023-06-14T19:39:06;21.07;98.94
75088;HTU21D;63664;44.868;40.600;2023-06-14T19:41:32;21.06;99.19
75088;HTU21D;63664;44.868;40.600;2023-06-14T19:44:01;21.07;99.33
75088;HTU21D;63664;44.868;40.600;2023-06-14T19:46:28;21.06;99.47
75088;HTU21D;63664;44.868;40.600;2023-06-14T19:48:54;21.07;99.61
75088;HTU21D;63664;44.868;40.600;2023-06-14T19:51:20;21.05;99.77
75088;HTU21D;63664;44.868;40.600;2023-06-14T19:53:48;21.04;99.89
75088;HTU21D;63664;44.868;40.600;2023-06-14T19:56:14;21.01;99.97
75088;HTU21D;63664;44.868;40.600;2023-06-14T19:58:40;20.96;100.16
75088;HTU21D;63664;44.868;40.600;2023-06-14T20:01:07;20.98;100.31
75088;HTU21D;63664;44.868;40.600;2023-06-14T20:03:34;20.94;100.36
75088;HTU21D;63664;44.868;40.600;2023-06-14T20:06:00;20.95;100.48
75088;HTU21D;63664;44.868;40.600;2023-06-14T20:08:27;20.95;100.51
75088;HTU21D;63664;44.868;40.600;2023-06-14T20:10:57;20.94;100.57
75088;HTU21D;63664;44.868;40.600;2023-06-14T20:13:23;20.92;100.68
75088;HTU21D;63664;44.868;40.600;2023-06-14T20:15:50;20.90;100.76
75088;HTU21D;63664;44.868;40.600;2023-06-14T20:18:16;20.90;100.90
75088;HTU21D;63664;44.868;40.600;2023-06-14T20:20:45;20.88;101.05
75088;HTU21D;63664;44.868;40.600;2023-06-14T20:23:14;20.89;101.03
75088;HTU21D;63664;44.868;40.600;2023-06-14T20:25:41;20.87;101.12